Overall Pressure and Temp Fo

24 Hour Pressure and Temp Fo

48 Hour Pressure and Temp Fo
Weather Index
Time Temp Pressure Humidity
Sun, Jun 17, 2018 at 11:00 PM ( 57.182℉ )- ( 13.99℃ ) 1020 - (6.75) 87%
Sun, Jun 17, 2018 at 10:00 PM ( 58.982℉ )- ( 14.99℃ ) 1019 - (5.75) 87%
Sun, Jun 17, 2018 at 9:00 PM ( 60.188℉ )- ( 15.66℃ ) 1018 - (4.75) 82%
Sun, Jun 17, 2018 at 8:00 PM ( 61.088℉ )- ( 16.16℃ ) 1018 - (4.75) 82%
Sun, Jun 17, 2018 at 7:00 PM ( 61.97℉ )- ( 16.65℃ ) 1017 - (3.75) 72%
Sun, Jun 17, 2018 at 6:00 PM ( 62.852℉ )- ( 17.14℃ ) 1017 - (3.75) 77%
Sun, Jun 17, 2018 at 5:00 PM ( 63.824℉ )- ( 17.68℃ ) 1017 - (3.75) 82%
Sun, Jun 17, 2018 at 4:00 PM ( 64.472℉ )- ( 18.04℃ ) 1017 - (3.75) 77%
Sun, Jun 17, 2018 at 3:00 PM ( 66.47℉ )- ( 19.15℃ ) 1017 - (3.75) 68%
Sun, Jun 17, 2018 at 2:00 PM ( 67.082℉ )- ( 19.49℃ ) 1016 - (2.75) 64%
Sun, Jun 17, 2018 at 1:00 PM ( 68.774℉ )- ( 20.43℃ ) 1016 - (2.75) 72%
Sun, Jun 17, 2018 at 12:00 PM ( 69.422℉ )- ( 20.79℃ ) 1016 - (2.75) 77%
Sun, Jun 17, 2018 at 11:00 AM ( 68.324℉ )- ( 20.18℃ ) 1016 - (2.75) 64%
Sun, Jun 17, 2018 at 10:00 AM ( 67.316℉ )- ( 19.62℃ ) 1015 - (1.75) 60%
Sun, Jun 17, 2018 at 9:00 AM ( 66.884℉ )- ( 19.38℃ ) 1015 - (1.75) 64%
Sun, Jun 17, 2018 at 8:00 AM ( 64.742℉ )- ( 18.19℃ ) 1014 - (0.75) 77%
Sun, Jun 17, 2018 at 7:00 AM ( 63.284℉ )- ( 17.38℃ ) 1013 - (-0.25) 77%
Sun, Jun 17, 2018 at 6:00 AM ( 61.952℉ )- ( 16.64℃ ) 1013 - (-0.25) 82%
Sun, Jun 17, 2018 at 5:00 AM ( 60.8℉ )- ( 16℃ ) 1013 - (-0.25) 82%
Sun, Jun 17, 2018 at 4:00 AM ( 60.53℉ )- ( 15.85℃ ) 1012 - (-1.25) 77%


Temp Data Info
All Data is Loveland Colorado. Over time ill expand to more cities however right now i want to collect the data.

Live Data

56.588° F

1019 Pressure

93% Humidity

1013.25 Is Avarage Sea Level Pressure.
The Differental is 5.75
Max Temp Prediction: 59°F
Min Temp Prediction: 55.4°F

What is Weather ID?
WeatherID is a 24 hour intiger system that allows a restful rotation of weather information per day. This is designed to prevent the need for multiple cron processes on a website.